Terminal Aerodrome Forecast
Issued by NWS

Home | Current Version | Previous Version | Text Only | Print | Product List | Glossary On
Versions: 1 2 3 4 5 6 7 8 9 10 11 12 13 14 15 16 17 18 19 20
116
FTUS46 KSEW 210524
TAFOLM
TAF
KOLM 210524Z 2106/2206 36006KT P6SM BKN035
     FM211000 36006KT P6SM SCT050
     FM211500 VRB02KT 4SM BR BKN050
     FM211900 17003KT P6SM OVC050
     FM220200 VRB02KT 4SM -SN BR BKN015 OVC025=

USA.gov is the U.S. government's official web portal to all federal, state and local government web resources and services.